Time;durP1;ratioP1;P1;durP2;ratioP2;P2;SDS_P1;SDS_P2;PMS_P1;PMS_P2;Temp;Humidity;BMP_temperature;BMP_pressure;BME280_temperature;BME280_humidity;BME280_pressure;Samples;Min_cycle;Max_cycle;Signal;HPM_P1;HPM_P2
2022/10/04 00:01:59;;;;;;;1.25;0.40;;;;;;;9.82;68.44;99386.73;1674360;83;21058;-72
2022/10/04 00:04:41;;;;;;;0.65;0.50;;;;;;;9.83;68.51;99373.66;1696588;83;21681;-72
2022/10/04 00:07:19;;;;;;;0.45;0.37;;;;;;;9.84;68.50;99387.27;1685601;83;21027;-73
2022/10/04 00:10:07;;;;;;;0.47;0.30;;;;;;;9.83;68.41;99384.32;1667952;85;20991;-71
2022/10/04 00:12:38;;;;;;;0.75;0.50;;;;;;;9.85;68.49;99386.17;1679970;83;21145;-72
2022/10/04 00:15:25;;;;;;;0.55;0.40;;;;;;;9.87;68.61;99381.34;1735251;80;21003;-72
2022/10/04 00:18:23;;;;;;;0.40;0.30;;;;;;;9.91;68.58;99379.73;1745310;81;21054;-72
2022/10/04 00:20:55;;;;;;;0.45;0.40;;;;;;;9.96;68.59;99388.20;1750089;80;21620;-72
2022/10/04 00:23:38;;;;;;;1.37;0.50;;;;;;;9.98;68.60;99376.19;1748057;82;21496;-72
2022/10/04 00:26:16;;;;;;;1.22;0.40;;;;;;;10.02;68.43;99376.41;1731530;80;21334;-73
2022/10/04 00:28:45;;;;;;;0.68;0.40;;;;;;;10.04;68.34;99383.61;1715779;82;21502;-71
2022/10/04 00:31:25;;;;;;;0.40;0.40;;;;;;;10.04;68.36;99380.40;1744290;82;20986;-71
2022/10/04 00:34:04;;;;;;;0.40;0.40;;;;;;;10.04;68.30;99383.06;1744890;81;21123;-71
2022/10/04 00:36:51;;;;;;;0.82;0.30;;;;;;;10.06;68.23;99393.44;1750250;80;21113;-72
2022/10/04 00:39:38;;;;;;;0.95;0.45;;;;;;;10.06;68.23;99392.90;1750198;80;21090;-72
2022/10/04 00:42:40;;;;;;;1.17;0.30;;;;;;;10.06;68.30;99387.56;1754718;81;21034;-72
2022/10/04 00:45:30;;;;;;;1.45;0.50;;;;;;;10.09;68.28;99384.34;1737063;80;21173;-72
2022/10/04 00:48:15;;;;;;;0.42;0.42;;;;;;;10.09;68.28;99392.34;1750080;80;21067;-70
2022/10/04 00:50:50;;;;;;;1.12;0.40;;;;;;;10.15;68.29;99394.97;1755529;80;21488;-71
2022/10/04 00:53:31;;;;;;;0.40;0.40;;;;;;;10.18;68.25;99383.19;1749824;80;21261;-72
2022/10/04 00:56:00;;;;;;;0.53;0.50;;;;;;;10.22;68.17;99392.76;1744926;81;21021;-72
2022/10/04 00:58:37;;;;;;;1.22;0.47;;;;;;;10.24;68.16;99393.28;1735852;80;21038;-72
2022/10/04 01:01:03;;;;;;;2.15;0.60;;;;;;;10.22;68.15;99399.43;1748080;80;20935;-72
2022/10/04 01:03:38;;;;;;;1.55;0.50;;;;;;;10.22;68.19;99406.89;1732720;81;21573;-73
2022/10/04 01:06:06;;;;;;;0.50;0.40;;;;;;;10.24;68.19;99398.62;1747741;80;21256;-73
2022/10/04 01:08:47;;;;;;;2.05;0.53;;;;;;;10.23;68.19;99397.83;1750842;80;21093;-72
2022/10/04 01:11:24;;;;;;;1.75;0.57;;;;;;;10.23;67.98;99394.34;1754196;80;21040;-72
2022/10/04 01:13:59;;;;;;;2.45;0.60;;;;;;;10.22;67.94;99397.55;1730559;80;21109;-71
2022/10/04 01:16:28;;;;;;;1.50;0.50;;;;;;;10.22;68.14;99388.21;1768720;80;21038;-71
2022/10/04 01:18:55;;;;;;;0.50;0.50;;;;;;;10.26;68.27;99394.59;1717552;82;21118;-72
2022/10/04 01:21:28;;;;;;;1.75;0.50;;;;;;;10.28;68.46;99394.33;1748294;80;21062;-71
2022/10/04 01:24:09;;;;;;;0.75;0.40;;;;;;;10.27;68.46;99390.08;1749215;82;21058;-73
2022/10/04 01:26:41;;;;;;;0.90;0.60;;;;;;;10.28;68.57;99395.12;1734090;80;22260;-73
2022/10/04 01:29:19;;;;;;;1.35;0.62;;;;;;;10.28;68.60;99396.45;1754888;80;21036;-72
2022/10/04 01:31:49;;;;;;;0.80;0.60;;;;;;;10.30;68.64;99392.98;1753247;80;21397;-72
2022/10/04 01:34:19;;;;;;;0.40;0.40;;;;;;;10.34;68.50;99398.54;1742957;80;21082;-71
2022/10/04 01:36:48;;;;;;;;;;;;;;;10.34;68.55;99394.53;1763196;80;21098;-71
2022/10/04 01:39:16;;;;;;;0.75;0.60;;;;;;;10.37;68.61;99400.64;1752135;81;20249;-73
2022/10/04 01:41:52;;;;;;;0.72;0.57;;;;;;;10.37;68.65;99395.30;1735522;81;21564;-72
2022/10/04 01:45:13;;;;;;;0.68;0.45;;;;;;;10.33;68.57;99398.27;1746146;80;21251;-72
2022/10/04 01:47:51;;;;;;;1.17;0.50;;;;;;;10.32;68.66;99399.34;1658839;84;21177;-72
2022/10/04 01:50:33;;;;;;;1.02;0.60;;;;;;;10.33;68.75;99400.42;1723478;80;21035;-73
2022/10/04 01:53:11;;;;;;;0.75;0.55;;;;;;;10.37;68.81;99405.98;1720235;80;21069;-70
2022/10/04 01:55:39;;;;;;;3.15;0.80;;;;;;;10.38;68.87;99405.44;1759710;80;21057;-72
2022/10/04 01:58:17;;;;;;;1.50;0.57;;;;;;;10.40;68.91;99414.77;1746239;80;21557;-72
2022/10/04 02:00:52;;;;;;;0.98;0.70;;;;;;;10.41;68.95;99407.54;1732339;80;21097;-72
2022/10/04 02:03:35;;;;;;;1.02;0.60;;;;;;;10.41;69.00;99411.55;1768177;80;21030;-72
2022/10/04 02:06:04;;;;;;;1.17;0.60;;;;;;;10.42;69.05;99417.13;1743621;80;21354;-73
2022/10/04 02:08:37;;;;;;;1.35;0.60;;;;;;;10.41;69.09;99416.34;1739825;80;20987;-71
2022/10/04 02:11:04;;;;;;;1.15;0.68;;;;;;;10.42;69.13;99425.14;1775345;80;21120;-72
2022/10/04 02:13:38;;;;;;;1.02;0.62;;;;;;;10.40;69.22;99428.11;1760508;80;21014;-72
2022/10/04 02:16:09;;;;;;;1.30;0.50;;;;;;;10.42;69.11;99437.94;1756834;80;21061;-72
2022/10/04 02:18:38;;;;;;;1.00;0.60;;;;;;;10.33;69.19;99417.77;1748744;80;21038;-73
2022/10/04 02:21:06;;;;;;;2.25;0.60;;;;;;;10.34;69.33;99442.58;1754157;80;21074;-74
2022/10/04 02:23:34;;;;;;;0.50;0.50;;;;;;;10.35;69.33;99437.48;1749114;80;21128;-74
2022/10/04 02:26:10;;;;;;;0.75;0.60;;;;;;;10.33;69.41;99436.97;1742447;80;21007;-73
2022/10/04 02:28:38;;;;;;;1.40;0.60;;;;;;;10.31;69.51;99427.92;1746020;80;20960;-75
2022/10/04 02:33:52;;;;;;;2.00;0.60;;;;;;;10.37;69.65;99439.34;1749336;82;21081;-74
2022/10/04 02:36:20;;;;;;;0.70;0.50;;;;;;;10.38;69.73;99440.93;1733435;80;21138;-72
2022/10/04 02:39:03;;;;;;;1.87;0.60;;;;;;;10.41;69.72;99439.58;1750053;80;21138;-74
2022/10/04 02:41:52;;;;;;;0.95;0.60;;;;;;;10.38;69.83;99433.47;1749004;80;21078;-73
2022/10/04 02:44:27;;;;;;;0.80;0.57;;;;;;;10.38;69.84;99441.47;1735669;80;21023;-74
2022/10/04 02:47:18;;;;;;;1.17;0.60;;;;;;;10.32;70.02;99446.06;1733031;80;21069;-74
2022/10/04 02:50:01;;;;;;;1.07;0.60;;;;;;;10.31;70.15;99441.80;1749828;80;21114;-76
2022/10/04 02:52:44;;;;;;;0.93;0.60;;;;;;;10.30;70.37;99445.56;1749198;80;21181;-73
2022/10/04 02:55:26;;;;;;;0.70;0.60;;;;;;;10.36;70.49;99450.29;1749822;82;21522;-75
2022/10/04 02:57:53;;;;;;;1.90;0.70;;;;;;;10.35;70.56;99456.17;1736655;80;21110;-73
2022/10/04 03:00:23;;;;;;;2.20;0.80;;;;;;;10.34;70.65;99453.25;1750540;80;21034;-73
2022/10/04 03:03:17;;;;;;;1.20;0.70;;;;;;;10.36;70.71;99453.75;1747382;80;21269;-74
2022/10/04 03:05:48;;;;;;;0.90;0.60;;;;;;;10.42;70.74;99458.51;1731286;82;21002;-74
2022/10/04 03:08:15;;;;;;;1.45;0.70;;;;;;;10.43;70.82;99446.23;1748938;80;21007;-72
2022/10/04 03:10:42;;;;;;;1.32;0.60;;;;;;;10.40;70.88;99473.48;1751277;81;21018;-75
2022/10/04 03:13:08;;;;;;;1.70;0.75;;;;;;;10.41;70.96;99460.39;1756057;80;21027;-76
2022/10/04 03:15:36;;;;;;;0.90;0.68;;;;;;;10.43;71.08;99466.77;1750381;81;21125;-75
2022/10/04 03:18:03;;;;;;;1.10;0.80;;;;;;;10.46;71.08;99463.02;1722526;82;21007;-74
2022/10/04 03:20:29;;;;;;;1.65;0.90;;;;;;;10.51;71.15;99464.83;1751077;81;21094;-74
2022/10/04 03:22:56;;;;;;;1.67;0.93;;;;;;;10.51;71.19;99466.16;1711432;82;21588;-73
2022/10/04 03:25:29;;;;;;;2.22;0.90;;;;;;;10.52;71.26;99467.20;1747988;80;21143;-74
2022/10/04 03:27:58;;;;;;;1.75;1.00;;;;;;;10.54;71.37;99474.95;1751836;82;21298;-75
2022/10/04 03:30:26;;;;;;;2.00;0.98;;;;;;;10.55;71.46;99482.66;1713230;82;21122;-72
2022/10/04 03:32:52;;;;;;;2.17;1.15;;;;;;;10.55;71.51;99477.31;1687521;83;21438;-74
2022/10/04 03:35:32;;;;;;;1.50;0.90;;;;;;;10.55;71.60;99489.33;1691824;83;21022;-75
2022/10/04 03:38:00;;;;;;;1.67;0.90;;;;;;;10.56;71.67;99494.95;1699115;83;21606;-74
2022/10/04 03:40:29;;;;;;;2.35;1.00;;;;;;;10.55;71.76;99503.23;1686275;83;21507;-74
2022/10/04 03:42:57;;;;;;;1.35;0.90;;;;;;;10.56;71.83;99509.64;1689616;83;21039;-74
2022/10/04 03:45:23;;;;;;;1.90;0.90;;;;;;;10.60;71.92;99510.41;1688332;83;21144;-75
2022/10/04 03:47:50;;;;;;;1.85;0.90;;;;;;;10.62;71.91;99517.58;1751314;81;20987;-74
2022/10/04 03:50:25;;;;;;;1.70;0.85;;;;;;;10.63;71.70;99523.17;1751268;80;21012;-74
2022/10/04 03:53:07;;;;;;;1.10;0.80;;;;;;;10.63;71.51;99515.16;1754069;80;21445;-73
2022/10/04 03:55:44;;;;;;;1.00;0.70;;;;;;;10.66;71.38;99510.08;1714862;81;21046;-73
2022/10/04 03:58:13;;;;;;;0.88;0.68;;;;;;;10.68;71.39;99514.58;1751473;82;21011;-74
2022/10/04 04:00:46;;;;;;;1.47;0.60;;;;;;;10.66;71.22;99517.27;1751117;80;21035;-74
2022/10/04 04:03:15;;;;;;;1.25;0.50;;;;;;;10.64;70.94;99519.44;1750701;80;21484;-72
2022/10/04 04:05:51;;;;;;;1.35;0.55;;;;;;;10.60;70.39;99530.44;1764500;80;21072;-74
2022/10/04 04:08:31;;;;;;;0.93;0.40;;;;;;;10.58;70.43;99537.92;1761379;80;20991;-75
2022/10/04 04:11:02;;;;;;;0.70;0.40;;;;;;;10.50;69.81;99538.80;1751952;80;20970;-74
2022/10/04 04:13:50;;;;;;;0.62;0.50;;;;;;;10.45;69.54;99539.37;1752126;80;21045;-73
2022/10/04 04:16:19;;;;;;;0.57;0.33;;;;;;;10.41;69.47;99534.34;1745961;80;21049;-71
2022/10/04 04:18:45;;;;;;;0.50;0.33;;;;;;;10.39;69.58;99543.95;1751480;81;21860;-72
2022/10/04 04:21:17;;;;;;;0.40;0.30;;;;;;;10.45;69.43;99546.83;1751908;80;21098;-71
2022/10/04 04:23:48;;;;;;;1.00;0.90;;;;;;;10.43;69.28;99543.67;1751865;82;21007;-73
2022/10/04 04:26:30;;;;;;;0.20;0.20;;;;;;;10.37;68.90;99556.00;1751760;82;21061;-71
2022/10/04 04:29:14;;;;;;;1.45;0.50;;;;;;;10.27;69.12;99556.88;1751766;80;21047;-72
2022/10/04 04:31:48;;;;;;;0.60;0.25;;;;;;;10.26;69.13;99554.72;1751489;82;21229;-71
2022/10/04 04:34:21;;;;;;;1.95;0.30;;;;;;;10.26;69.00;99553.93;1751468;81;21058;-73
2022/10/04 04:36:48;;;;;;;0.72;0.28;;;;;;;10.27;68.99;99562.22;1744693;80;20999;-72
2022/10/04 04:39:36;;;;;;;1.27;0.30;;;;;;;10.26;69.09;99572.07;1751366;80;21060;-73
2022/10/04 04:42:13;;;;;;;0.82;0.37;;;;;;;10.26;69.14;99561.94;1751941;80;21070;-73
2022/10/04 04:44:51;;;;;;;0.45;0.30;;;;;;;10.24;69.14;99570.75;1751173;81;21531;-73
2022/10/04 04:47:34;;;;;;;0.78;0.40;;;;;;;10.23;69.17;99575.30;1750654;80;21051;-75
2022/10/04 04:50:09;;;;;;;1.12;0.65;;;;;;;10.25;69.20;99575.80;1751726;81;21057;-75
2022/10/04 04:52:37;;;;;;;0.90;0.40;;;;;;;10.26;69.19;99576.62;1751125;80;21007;-76
2022/10/04 04:55:05;;;;;;;1.77;0.62;;;;;;;10.24;69.06;99585.42;1747228;80;21494;-75
2022/10/04 04:57:32;;;;;;;1.17;0.50;;;;;;;10.21;69.16;99583.31;1751571;80;22432;-75
2022/10/04 05:00:00;;;;;;;0.93;0.55;;;;;;;10.20;69.12;99585.70;1753229;80;20995;-75
2022/10/04 05:02:35;;;;;;;0.60;0.37;;;;;;;10.23;69.21;99594.48;1756161;80;21149;-75
2022/10/04 05:05:26;;;;;;;0.82;0.40;;;;;;;10.21;69.30;99601.45;1729468;80;21118;-75
2022/10/04 05:08:12;;;;;;;0.95;0.47;;;;;;;10.24;69.36;99602.23;1751340;80;20975;-75
2022/10/04 05:10:52;;;;;;;1.10;0.47;;;;;;;10.24;69.28;99608.11;1731020;81;21292;-75
2022/10/04 05:13:21;;;;;;;0.45;0.42;;;;;;;10.24;69.13;99602.77;1751431;81;20963;-73
2022/10/04 05:15:50;;;;;;;2.37;0.50;;;;;;;10.26;69.14;99613.44;1748606;80;21090;-76
2022/10/04 05:18:31;;;;;;;2.27;0.40;;;;;;;10.29;69.19;99622.23;1749359;80;21141;-74
2022/10/04 05:21:21;;;;;;;0.50;0.47;;;;;;;10.35;69.20;99614.20;1763419;80;21047;-75
2022/10/04 05:23:47;;;;;;;1.30;0.47;;;;;;;10.38;69.20;99630.45;1757555;80;21563;-73
2022/10/04 05:26:16;;;;;;;0.75;0.40;;;;;;;10.39;69.36;99636.04;1748112;81;20955;-75
2022/10/04 05:28:43;;;;;;;0.68;0.30;;;;;;;10.40;69.31;99632.31;1739714;81;20964;-74
2022/10/04 05:31:44;;;;;;;0.57;0.40;;;;;;;10.47;69.37;99640.01;1750861;81;21472;-73
2022/10/04 05:34:23;;;;;;;0.95;0.40;;;;;;;10.53;69.38;99646.37;1751130;81;20993;-75
2022/10/04 05:37:23;;;;;;;0.82;0.50;;;;;;;10.56;69.28;99646.33;1751292;81;21753;-74
2022/10/04 05:40:15;;;;;;;1.27;0.50;;;;;;;10.59;69.25;99651.66;1761991;80;21011;-75
2022/10/04 05:42:45;;;;;;;0.80;0.60;;;;;;;10.60;69.13;99649.27;1751867;80;21552;-76
2022/10/04 05:45:24;;;;;;;1.07;0.40;;;;;;;10.64;69.11;99662.31;1751684;80;21096;-74
2022/10/04 05:47:54;;;;;;;1.60;0.70;;;;;;;10.67;69.03;99655.88;1751749;80;21037;-75
2022/10/04 05:50:40;;;;;;;2.05;0.68;;;;;;;10.70;69.01;99663.33;1751655;80;21228;-76
2022/10/04 05:53:14;;;;;;;1.02;0.60;;;;;;;10.72;69.01;99669.70;1760536;80;21061;-76
2022/10/04 05:56:31;;;;;;;1.70;0.80;;;;;;;10.76;69.04;99669.43;1760171;80;20983;-77
2022/10/04 05:59:27;;;;;;;2.15;1.00;;;;;;;10.79;68.91;99672.34;1753416;80;21031;-78
2022/10/04 06:02:25;;;;;;;1.47;0.72;;;;;;;10.81;68.77;99676.05;1752862;80;21062;-76
2022/10/04 06:05:14;;;;;;;2.05;0.90;;;;;;;10.88;68.68;99676.52;1747334;80;21932;-73
2022/10/04 06:07:57;;;;;;;3.37;0.90;;;;;;;10.94;68.65;99683.42;1755440;80;21102;-76
2022/10/04 06:10:47;;;;;;;2.30;0.60;;;;;;;11.04;68.79;99688.67;1744663;80;20975;-76
2022/10/04 06:13:52;;;;;;;1.40;0.80;;;;;;;11.10;68.36;99689.98;1742576;79;21023;-76
2022/10/04 06:16:45;;;;;;;1.22;0.70;;;;;;;11.18;68.51;99699.50;1757909;80;21695;-73
2022/10/04 06:19:27;;;;;;;1.32;0.80;;;;;;;11.27;68.30;99703.70;1757795;81;21537;-75
2022/10/04 06:22:16;;;;;;;3.27;1.20;;;;;;;11.38;68.00;99703.84;1752001;80;21042;-74
2022/10/04 06:24:51;;;;;;;2.10;0.90;;;;;;;11.47;67.83;99718.20;1751966;82;21046;-75
2022/10/04 06:27:41;;;;;;;1.60;0.85;;;;;;;11.51;67.33;99714.42;1740026;80;21647;-76
2022/10/04 06:30:16;;;;;;;1.87;0.90;;;;;;;11.61;67.24;99713.52;1749620;82;21035;-75
2022/10/04 06:33:06;;;;;;;3.77;1.10;;;;;;;11.66;66.92;99713.47;1735679;82;21059;-76
2022/10/04 06:35:55;;;;;;;2.50;1.03;;;;;;;11.75;66.97;99710.44;1728436;80;21334;-74
2022/10/04 06:38:57;;;;;;;2.25;1.15;;;;;;;11.80;66.15;99721.61;1729786;80;21382;-74
2022/10/04 06:41:42;;;;;;;3.35;1.12;;;;;;;11.89;66.28;99724.73;1752298;82;21440;-76
2022/10/04 06:44:19;;;;;;;2.37;0.90;;;;;;;11.97;66.09;99722.75;1751996;82;21084;-78
2022/10/04 06:47:24;;;;;;;1.70;1.00;;;;;;;11.99;65.80;99727.05;1737582;80;21342;-74
2022/10/04 06:50:19;;;;;;;2.57;1.10;;;;;;;12.04;65.57;99743.02;1752052;80;21196;-77
2022/10/04 06:52:53;;;;;;;3.10;1.20;;;;;;;12.03;65.88;99732.07;1755853;80;21127;-74
2022/10/04 06:56:01;;;;;;;3.37;1.20;;;;;;;12.11;65.29;99742.95;1739838;81;21274;-75
2022/10/04 06:59:01;;;;;;;2.10;1.10;;;;;;;12.17;65.12;99743.66;1764907;80;21337;-78
2022/10/04 07:01:32;;;;;;;2.45;1.20;;;;;;;12.34;64.77;99752.55;1752581;82;21370;-75
2022/10/04 07:04:34;;;;;;;2.47;1.12;;;;;;;12.22;64.81;99751.64;1754229;80;21054;-76
2022/10/04 07:07:33;;;;;;;2.13;1.30;;;;;;;12.21;64.75;99756.75;1726760;80;21109;-76
2022/10/04 07:13:42;;;;;;;2.00;1.00;;;;;;;12.24;64.80;99753.50;1726887;80;21062;-76
2022/10/04 07:16:46;;;;;;;2.20;1.10;;;;;;;12.28;64.63;99757.19;1716195;81;21267;-77
2022/10/04 07:19:28;;;;;;;3.50;1.50;;;;;;;12.44;64.51;99774.66;1736895;81;21824;-76
2022/10/04 07:22:11;;;;;;;2.10;1.10;;;;;;;12.41;64.33;99775.23;1725540;81;21374;-76
2022/10/04 07:25:07;;;;;;;2.83;1.33;;;;;;;12.38;64.26;99776.34;1716213;82;21309;-77
2022/10/04 07:30:55;;;;;;;2.37;1.30;;;;;;;12.44;64.37;99775.99;1708041;81;21673;-74
2022/10/04 07:33:24;;;;;;;2.57;1.30;;;;;;;12.40;63.92;99787.55;1724886;83;21250;-76
2022/10/04 07:36:02;;;;;;;2.27;1.20;;;;;;;12.32;63.91;99786.32;1720145;82;21826;-79
2022/10/04 07:38:31;;;;;;;2.70;1.20;;;;;;;12.34;64.10;99795.39;1710410;81;21669;-76
2022/10/04 07:41:09;;;;;;;2.63;1.20;;;;;;;12.37;63.81;99794.30;1689129;84;21215;-76
2022/10/04 07:44:03;;;;;;;3.50;1.40;;;;;;;12.43;63.92;99795.02;1700219;83;21336;-78
2022/10/04 07:46:53;;;;;;;2.57;1.23;;;;;;;12.51;64.04;99798.95;1715205;81;21279;-76
2022/10/04 07:49:21;;;;;;;3.10;1.30;;;;;;;12.54;63.48;99795.16;1720333;81;21305;-76
2022/10/04 07:52:11;;;;;;;2.70;1.20;;;;;;;12.47;63.16;99805.43;1715360;81;21105;-76
2022/10/04 07:55:02;;;;;;;3.17;1.30;;;;;;;12.42;63.05;99791.55;1722060;81;21869;-73
2022/10/04 07:57:37;;;;;;;2.43;1.20;;;;;;;12.40;63.46;99809.80;1722549;81;21246;-76
2022/10/04 08:00:19;;;;;;;3.93;1.10;;;;;;;12.41;63.66;99819.97;1728658;81;21823;-74
2022/10/04 08:03:10;;;;;;;4.27;1.63;;;;;;;12.42;63.94;99820.21;1725848;83;21717;-75
2022/10/04 08:05:41;;;;;;;4.60;1.70;;;;;;;12.39;63.75;99828.27;1725263;83;21260;-76
2022/10/04 08:08:28;;;;;;;2.83;1.20;;;;;;;12.35;64.07;99829.94;1725915;83;21959;-75
2022/10/04 08:11:22;;;;;;;2.03;1.20;;;;;;;12.36;64.12;99832.86;1725525;83;20999;-73
2022/10/04 08:14:28;;;;;;;2.67;1.30;;;;;;;12.40;64.27;99831.23;1725384;83;21301;-73
2022/10/04 08:17:21;;;;;;;3.33;1.33;;;;;;;12.39;64.17;99834.17;1689025;85;21260;-74
2022/10/04 08:20:06;;;;;;;3.90;1.27;;;;;;;12.43;64.79;99837.87;1720597;83;21319;-75
2022/10/04 08:22:51;;;;;;;4.30;1.80;;;;;;;12.42;64.76;99831.72;1725427;83;21024;-74
2022/10/04 08:25:23;;;;;;;2.80;1.40;;;;;;;12.45;64.82;99846.42;1725976;83;21300;-74
2022/10/04 08:31:13;;;;;;;3.08;1.40;;;;;;;12.40;64.85;99847.30;1726153;83;21285;-76
2022/10/04 08:34:32;;;;;;;4.27;1.73;;;;;;;12.36;64.97;99859.64;1725645;83;20962;-76
2022/10/04 08:37:23;;;;;;;3.70;1.57;;;;;;;12.36;65.18;99858.84;1725886;83;21358;-77
2022/10/04 08:40:14;;;;;;;3.17;1.70;;;;;;;12.34;65.30;99859.66;1725689;83;21839;-74
2022/10/04 08:43:09;;;;;;;3.50;1.60;;;;;;;12.31;65.42;99873.10;1725338;83;21490;-72
2022/10/04 08:46:08;;;;;;;2.50;1.40;;;;;;;12.29;65.72;99869.11;1725725;83;21301;-75
2022/10/04 08:49:34;;;;;;;3.90;1.50;;;;;;;12.26;66.14;99867.79;1725433;83;21691;-74
2022/10/04 08:52:33;;;;;;;2.70;1.40;;;;;;;12.31;66.37;99877.12;1724920;83;21101;-72
2022/10/04 08:55:22;;;;;;;3.10;1.60;;;;;;;12.39;66.87;99887.73;1725975;83;21233;-76
2022/10/04 08:58:04;;;;;;;3.73;1.77;;;;;;;12.47;66.70;99889.80;1724295;82;21162;-74
2022/10/04 09:01:11;;;;;;;4.08;1.85;;;;;;;12.58;66.74;99889.92;1724848;81;21288;-75
2022/10/04 09:04:16;;;;;;;3.40;1.60;;;;;;;12.62;66.56;99886.13;1724402;82;21056;-74
2022/10/04 09:07:03;;;;;;;3.33;1.70;;;;;;;12.63;65.65;99891.73;1725618;83;21233;-73
2022/10/04 09:09:38;;;;;;;2.80;1.77;;;;;;;12.59;65.22;99899.55;1662623;84;21181;-74
2022/10/04 09:12:50;;;;;;;4.23;1.40;;;;;;;12.61;65.25;99900.62;1707389;82;21187;-76
2022/10/04 09:15:53;;;;;;;3.57;1.53;;;;;;;12.60;65.25;99911.88;1725659;82;21211;-74
2022/10/04 09:18:34;;;;;;;3.33;1.40;;;;;;;12.54;65.31;99917.58;1721095;83;21289;-73
2022/10/04 09:21:13;;;;;;;4.58;2.05;;;;;;;12.53;65.46;99918.64;1724765;82;21208;-73
2022/10/04 09:24:10;;;;;;;4.57;1.70;;;;;;;12.48;64.90;99912.81;1724572;82;21767;-73
2022/10/04 09:26:44;;;;;;;5.43;2.00;;;;;;;12.49;65.18;99918.42;1723453;82;21667;-73
2022/10/04 09:29:43;;;;;;;4.70;2.30;;;;;;;12.50;65.34;99920.00;1724845;82;21191;-75
2022/10/04 09:32:30;;;;;;;5.33;1.80;;;;;;;12.61;65.12;99925.52;1724414;82;21259;-72
2022/10/04 09:35:18;;;;;;;3.53;1.70;;;;;;;12.59;65.11;99933.03;1724820;82;21789;-74
2022/10/04 09:38:09;;;;;;;4.80;1.80;;;;;;;12.58;65.07;99933.33;1725630;83;21389;-75
2022/10/04 09:41:02;;;;;;;3.83;2.30;;;;;;;12.54;64.96;99929.64;1724528;81;21304;-74
2022/10/04 09:43:59;;;;;;;3.70;2.13;;;;;;;12.56;65.15;99938.17;1725643;83;21072;-75
2022/10/04 09:46:52;;;;;;;4.03;2.17;;;;;;;12.54;65.32;99939.80;1725012;82;21825;-74
2022/10/04 09:49:36;;;;;;;5.53;2.60;;;;;;;12.56;65.49;99943.52;1724982;82;21200;-74
2022/10/04 09:52:48;;;;;;;5.83;2.40;;;;;;;12.56;65.58;99942.19;1724622;82;21175;-74
2022/10/04 09:55:46;;;;;;;5.03;2.10;;;;;;;12.56;65.54;99946.20;1725921;82;21767;-76
2022/10/04 09:58:27;;;;;;;5.00;2.17;;;;;;;12.57;65.74;99951.81;1724825;82;21287;-74
2022/10/04 10:01:14;;;;;;;14.27;3.07;;;;;;;12.57;66.00;99955.31;1712512;81;21263;-76
2022/10/04 10:04:13;;;;;;;22.07;4.60;;;;;;;12.63;66.19;99958.71;1724724;82;21316;-76
2022/10/04 10:06:58;;;;;;;11.43;2.80;;;;;;;12.67;66.21;99957.08;1724434;82;21249;-74
2022/10/04 10:16:00;;;;;;;3.97;2.20;;;;;;;12.77;66.20;99968.23;1725573;82;20205;-74
2022/10/04 10:18:35;;;;;;;4.67;2.10;;;;;;;12.78;66.39;99962.57;1724386;82;21308;-75
2022/10/04 10:21:25;;;;;;;4.43;2.50;;;;;;;12.82;66.53;99962.80;1725216;82;21559;-75
2022/10/04 10:24:07;;;;;;;4.33;2.17;;;;;;;12.90;66.46;99957.61;1725323;82;21270;-74
2022/10/04 10:26:52;;;;;;;3.70;2.00;;;;;;;12.91;66.48;99965.10;1720692;82;21208;-75
2022/10/04 10:29:50;;;;;;;4.33;2.30;;;;;;;12.87;65.73;99972.92;1725596;83;21222;-73
2022/10/04 10:32:55;;;;;;;3.80;2.30;;;;;;;12.85;65.53;99987.69;1725527;82;21262;-75
2022/10/04 10:35:47;;;;;;;3.70;1.97;;;;;;;12.81;65.20;99978.63;1724478;82;21257;-76
2022/10/04 10:38:59;;;;;;;5.28;2.22;;;;;;;12.81;64.41;99983.98;1724560;82;21442;-74
2022/10/04 10:41:57;;;;;;;5.87;2.10;;;;;;;12.85;64.42;99977.76;1725922;82;21048;-75
2022/10/04 10:44:33;;;;;;;6.20;2.60;;;;;;;12.90;64.40;99988.44;1725289;82;21080;-75
2022/10/04 10:47:15;;;;;;;3.90;1.97;;;;;;;12.94;64.40;99981.16;1701102;82;21306;-74
2022/10/04 10:50:21;;;;;;;6.03;1.98;;;;;;;12.95;63.73;99988.11;1725303;82;21126;-77
2022/10/04 10:53:31;;;;;;;3.00;1.83;;;;;;;12.98;63.49;99988.33;1725041;82;21024;-77
2022/10/04 10:56:07;;;;;;;3.40;1.90;;;;;;;13.00;63.27;99988.06;1705530;83;21821;-77
2022/10/04 10:58:56;;;;;;;3.83;2.30;;;;;;;13.12;62.79;99983.06;1724619;82;21314;-74
2022/10/04 11:02:04;;;;;;;4.67;2.30;;;;;;;13.26;62.46;99995.25;1725300;81;21293;-76
2022/10/04 11:04:58;;;;;;;4.20;2.30;;;;;;;13.36;62.63;99989.77;1690167;84;21247;-74
2022/10/04 11:07:52;;;;;;;3.43;2.03;;;;;;;13.48;62.29;100004.88;1724968;82;21080;-77
2022/10/04 11:10:41;;;;;;;4.10;2.10;;;;;;;13.48;61.42;99983.41;1724188;82;21327;-76
2022/10/04 11:13:49;;;;;;;6.17;2.03;;;;;;;13.37;60.92;99998.06;1725309;83;21354;-76
2022/10/04 11:17:13;;;;;;;3.73;2.10;;;;;;;13.37;60.65;100008.25;1706418;82;21956;-77
2022/10/04 11:20:30;;;;;;;3.70;2.00;;;;;;;13.33;60.33;100003.21;1655474;86;21545;-74
2022/10/04 11:23:50;;;;;;;5.67;2.90;;;;;;;13.43;60.35;99996.13;1659603;85;21377;-75
2022/10/04 11:26:34;;;;;;;6.27;2.20;;;;;;;13.56;59.99;99990.03;1725210;82;21764;-74
2022/10/04 11:29:20;;;;;;;4.77;2.47;;;;;;;13.75;59.69;100008.79;1688777;82;21405;-76
2022/10/04 11:32:06;;;;;;;3.70;2.30;;;;;;;13.97;58.46;100000.14;1725332;82;21807;-75
2022/10/04 11:35:13;;;;;;;5.13;2.27;;;;;;;14.05;57.88;99985.52;1698497;83;22137;-75
2022/10/04 11:38:26;;;;;;;4.30;2.30;;;;;;;14.07;57.48;100005.34;1725194;82;21200;-75
2022/10/04 11:41:09;;;;;;;5.10;2.75;;;;;;;13.92;57.59;100018.48;1711821;82;21262;-75
2022/10/04 11:43:45;;;;;;;5.60;2.20;;;;;;;13.94;57.79;100004.75;1719103;82;21099;-76
2022/10/04 11:46:51;;;;;;;3.40;2.17;;;;;;;13.81;57.62;100011.11;1724799;82;21196;-75
2022/10/04 11:49:34;;;;;;;4.00;2.20;;;;;;;13.82;57.99;100012.72;1725058;82;21244;-75
2022/10/04 11:52:30;;;;;;;4.93;2.60;;;;;;;13.79;57.49;100015.98;1713788;83;21413;-75
2022/10/04 11:55:36;;;;;;;5.50;2.47;;;;;;;13.72;56.92;100011.53;1719525;82;21698;-75
2022/10/04 11:58:20;;;;;;;6.87;2.53;;;;;;;13.66;56.67;100014.58;1726911;83;21281;-73
2022/10/04 12:01:17;;;;;;;4.23;2.30;;;;;;;13.62;57.27;100023.73;1724971;81;21724;-73
2022/10/04 12:04:24;;;;;;;4.97;2.37;;;;;;;13.63;56.78;100024.00;1720113;81;21323;-75
2022/10/04 12:07:25;;;;;;;3.50;1.90;;;;;;;13.65;57.07;100031.20;1724764;82;21265;-75
2022/10/04 12:10:25;;;;;;;3.85;2.20;;;;;;;13.71;56.44;100022.00;1725321;82;21221;-74
2022/10/04 12:13:22;;;;;;;3.93;2.03;;;;;;;13.77;56.68;100018.16;1716566;82;21460;-74
2022/10/04 12:16:17;;;;;;;3.40;1.87;;;;;;;13.86;56.50;100025.02;1724866;82;21267;-71
2022/10/04 12:19:27;;;;;;;3.30;1.70;;;;;;;13.97;56.15;100026.99;1725554;83;21209;-75
2022/10/04 12:22:20;;;;;;;3.57;1.83;;;;;;;14.06;55.28;100030.61;1725288;83;21581;-74
2022/10/04 12:25:15;;;;;;;2.70;1.60;;;;;;;14.08;54.99;100026.55;1725628;82;21318;-74
2022/10/04 12:28:13;;;;;;;2.93;1.70;;;;;;;14.10;54.89;100030.27;1725339;82;21994;-73
2022/10/04 12:31:24;;;;;;;2.57;1.63;;;;;;;14.25;54.39;100034.06;1726580;82;21192;-72
2022/10/04 12:34:15;;;;;;;4.50;1.80;;;;;;;14.31;54.16;100034.76;1725646;83;21316;-76
2022/10/04 12:37:11;;;;;;;3.23;1.93;;;;;;;14.19;53.83;100020.47;1725775;82;21220;-75
2022/10/04 12:40:01;;;;;;;4.50;2.30;;;;;;;14.11;54.01;100045.28;1725572;83;21206;-75
2022/10/04 12:43:11;;;;;;;4.00;2.40;;;;;;;14.07;54.28;100025.48;1709792;83;21378;-76
2022/10/04 12:45:45;;;;;;;3.87;2.30;;;;;;;14.07;54.57;100026.83;1725363;82;21374;-76
2022/10/04 12:48:53;;;;;;;4.40;2.50;;;;;;;14.08;55.05;100039.98;1725378;82;21261;-71
2022/10/04 12:52:04;;;;;;;4.60;2.40;;;;;;;14.10;54.59;100041.02;1725836;82;21200;-73
2022/10/04 12:55:12;;;;;;;4.33;2.57;;;;;;;14.10;54.63;100036.98;1725421;82;21290;-74
2022/10/04 12:57:54;;;;;;;4.00;2.57;;;;;;;14.11;55.17;100035.09;1725642;82;21207;-74
2022/10/04 13:00:25;;;;;;;3.57;2.07;;;;;;;14.25;54.91;100050.19;1725756;81;21314;-76
2022/10/04 13:03:22;;;;;;;3.60;2.30;;;;;;;14.25;54.16;100047.50;1725765;83;21618;-73
2022/10/04 13:06:12;;;;;;;3.63;2.10;;;;;;;14.19;54.22;100051.35;1725588;83;21074;-75
2022/10/04 13:09:16;;;;;;;3.90;2.20;;;;;;;14.18;54.27;100049.77;1725611;83;21226;-73
2022/10/04 13:12:09;;;;;;;3.10;2.13;;;;;;;14.14;54.42;100051.42;1725825;83;21224;-74